createdAt,value
2023-04-27T00:00:06.210Z,99243.98
2023-04-27T00:03:11.557Z,99253.90
2023-04-27T00:06:12.383Z,99257.79
2023-04-27T00:09:13.552Z,99256.13
2023-04-27T00:12:14.332Z,99259.77
2023-04-27T00:15:14.319Z,99263.89
2023-04-27T00:18:15.342Z,99261.72
2023-04-27T00:21:15.281Z,99267.09
2023-04-27T00:24:15.240Z,99275.02
2023-04-27T00:27:16.296Z,99280.53
2023-04-27T00:30:16.349Z,99289.10
2023-04-27T00:33:17.268Z,99291.63
2023-04-27T00:36:18.675Z,99294.80
2023-04-27T00:39:18.307Z,99302.34
2023-04-27T00:42:22.857Z,99307.64
2023-04-27T00:45:23.297Z,99309.33
2023-04-27T00:48:23.306Z,99311.34
2023-04-27T00:51:24.291Z,99308.40
2023-04-27T00:54:24.419Z,99308.80
2023-04-27T00:57:24.298Z,99310.16
2023-04-27T01:00:26.465Z,99308.88
2023-04-27T01:03:28.561Z,99314.56
2023-04-27T01:06:29.315Z,99307.12
2023-04-27T01:09:32.633Z,99303.88
2023-04-27T01:12:33.399Z,99305.77
2023-04-27T01:15:33.330Z,99300.28
2023-04-27T01:18:37.372Z,99296.65
2023-04-27T01:21:37.325Z,99299.98
2023-04-27T01:24:37.386Z,99299.45
2023-04-27T01:27:38.617Z,99301.62
2023-04-27T01:30:31.724Z,99303.27
2023-04-27T01:33:32.775Z,99301.95
2023-04-27T01:36:33.357Z,99311.60
2023-04-27T01:39:33.374Z,99309.27
2023-04-27T01:42:34.437Z,99302.16
2023-04-27T01:45:35.421Z,99306.64
2023-04-27T01:48:35.397Z,99315.92
2023-04-27T01:51:37.409Z,99319.90
2023-04-27T01:54:30.624Z,99324.17
2023-04-27T01:57:30.420Z,99327.31
2023-04-27T02:00:30.416Z,99327.94
2023-04-27T02:03:30.634Z,99331.31
2023-04-27T02:06:32.415Z,99332.09
2023-04-27T02:09:32.416Z,99332.09
2023-04-27T02:12:32.453Z,99332.89
2023-04-27T02:15:34.684Z,99334.54
2023-04-27T02:18:34.447Z,99337.56
2023-04-27T02:21:36.674Z,99337.19
2023-04-27T02:24:36.835Z,99336.55
2023-04-27T02:27:37.475Z,99341.87
2023-04-27T02:30:39.537Z,99343.23
2023-04-27T02:33:39.484Z,99346.52
2023-04-27T02:36:39.547Z,99348.73
2023-04-27T02:39:39.557Z,99348.90
2023-04-27T02:42:39.546Z,99350.64
2023-04-27T02:45:39.572Z,99348.43
2023-04-27T02:48:39.520Z,99353.50
2023-04-27T02:51:39.520Z,99354.23
2023-04-27T02:54:39.491Z,99355.84
2023-04-27T02:57:40.529Z,99357.61
2023-04-27T03:00:42.595Z,99371.79
2023-04-27T03:03:42.668Z,99374.27
2023-04-27T03:06:42.535Z,99374.39
2023-04-27T03:09:43.560Z,99380.63
2023-04-27T03:12:44.516Z,99377.15
2023-04-27T03:15:44.552Z,99375.84
2023-04-27T03:18:45.554Z,99376.12
2023-04-27T03:21:48.575Z,99380.83
2023-04-27T03:24:49.573Z,99382.69
2023-04-27T03:27:49.543Z,99383.30
2023-04-27T03:30:49.620Z,99390.27
2023-04-27T03:33:49.588Z,99394.15
2023-04-27T03:36:49.650Z,99395.56
2023-04-27T03:39:50.629Z,99396.02
2023-04-27T03:42:46.722Z,99400.86
2023-04-27T03:45:54.664Z,99403.10
2023-04-27T03:48:54.815Z,99409.16
2023-04-27T03:51:56.619Z,99413.05
2023-04-27T03:54:56.950Z,99416.05
2023-04-27T03:57:57.588Z,99417.09
2023-04-27T04:00:57.620Z,99415.64
2023-04-27T04:03:57.974Z,99413.02
2023-04-27T04:06:59.657Z,99416.05
2023-04-27T04:10:00.866Z,99411.78
2023-04-27T04:13:02.651Z,99411.05
2023-04-27T04:16:03.669Z,99415.80
2023-04-27T04:19:03.655Z,99415.16
2023-04-27T04:22:03.731Z,99412.29
2023-04-27T04:25:03.732Z,99412.33
2023-04-27T04:28:03.726Z,99413.02
2023-04-27T04:31:03.749Z,99413.35
2023-04-27T04:34:03.720Z,99411.06
2023-04-27T04:37:03.665Z,99409.48
2023-04-27T04:40:03.699Z,99412.33
2023-04-27T04:43:03.678Z,99413.27
2023-04-27T04:46:03.791Z,99406.50
2023-04-27T04:49:03.701Z,99415.66
2023-04-27T04:52:03.719Z,99426.48
2023-04-27T04:55:06.900Z,99426.04
2023-04-27T04:58:06.789Z,99433.31
2023-04-27T05:01:16.194Z,99436.23
2023-04-27T05:04:17.915Z,99440.80
2023-04-27T05:07:20.921Z,99440.12
2023-04-27T05:10:23.832Z,99439.84
2023-04-27T05:13:23.869Z,99440.42
2023-04-27T05:16:24.286Z,99447.55
2023-04-27T05:19:26.985Z,99446.85
2023-04-27T05:22:26.768Z,99454.88
2023-04-27T05:25:26.816Z,99449.61
2023-04-27T05:28:27.498Z,99450.92
2023-04-27T05:31:27.792Z,99454.67
2023-04-27T05:34:27.845Z,99460.10
2023-04-27T05:37:27.926Z,99455.20
2023-04-27T05:40:28.823Z,99453.39
2023-04-27T05:43:28.748Z,99455.73
2023-04-27T05:46:28.964Z,99452.61
2023-04-27T05:49:28.871Z,99455.45
2023-04-27T05:52:29.855Z,99455.58
2023-04-27T05:55:30.030Z,99463.71
2023-04-27T05:58:29.822Z,99467.56
2023-04-27T06:01:29.933Z,99467.20
2023-04-27T06:04:29.953Z,99467.98
2023-04-27T06:07:31.006Z,99469.50
2023-04-27T06:10:30.816Z,99472.48
2023-04-27T06:13:31.871Z,99475.43
2023-04-27T06:16:31.846Z,99475.09
2023-04-27T06:19:32.838Z,99476.88
2023-04-27T06:22:32.852Z,99483.25
2023-04-27T06:25:37.473Z,99480.59
2023-04-27T06:28:37.846Z,99482.15
2023-04-27T06:31:39.208Z,99484.59
2023-04-27T06:34:39.877Z,99484.17
2023-04-27T06:37:39.926Z,99488.08
2023-04-27T06:40:39.900Z,99491.85
2023-04-27T06:43:40.892Z,99493.67
2023-04-27T06:46:41.019Z,99495.93
2023-04-27T06:49:41.071Z,99501.70
2023-04-27T06:52:40.925Z,99501.49
2023-04-27T06:55:43.466Z,99504.53
2023-04-27T06:58:53.029Z,99506.41
2023-04-27T07:01:54.053Z,99507.47
2023-04-27T07:04:54.387Z,99512.48
2023-04-27T07:07:56.054Z,99512.85
2023-04-27T07:10:55.967Z,99516.78
2023-04-27T07:13:55.920Z,99521.92
2023-04-27T07:16:57.968Z,99523.66
2023-04-27T07:19:58.966Z,99523.34
2023-04-27T07:22:59.085Z,99526.89
2023-04-27T07:25:58.945Z,99527.46
2023-04-27T07:28:58.968Z,99527.30
2023-04-27T07:31:59.039Z,99530.42
2023-04-27T07:34:59.007Z,99526.80
2023-04-27T07:37:59.025Z,99532.18
2023-04-27T07:40:59.081Z,99529.86
2023-04-27T07:43:52.099Z,99530.60
2023-04-27T07:46:54.243Z,99535.90
2023-04-27T07:49:54.974Z,99537.23
2023-04-27T07:52:55.989Z,99535.43
2023-04-27T07:55:56.093Z,99538.52
2023-04-27T07:58:57.011Z,99537.73
2023-04-27T08:02:07.026Z,99537.55
2023-04-27T08:05:17.530Z,99543.33
2023-04-27T08:08:19.687Z,99543.70
2023-04-27T08:11:25.159Z,99549.14
2023-04-27T08:14:25.065Z,99550.34
2023-04-27T08:17:26.132Z,99553.56
2023-04-27T08:20:26.063Z,99556.62
2023-04-27T08:23:26.106Z,99563.83
2023-04-27T08:26:28.037Z,99566.31
2023-04-27T08:29:28.985Z,99566.62
2023-04-27T08:32:31.172Z,99567.13
2023-04-27T08:35:31.069Z,99569.96
2023-04-27T08:38:31.059Z,99572.04
2023-04-27T08:41:36.135Z,99571.88
2023-04-27T08:44:36.105Z,99572.66
2023-04-27T08:47:42.657Z,99575.72
2023-04-27T08:50:44.114Z,99575.85
2023-04-27T08:53:44.182Z,99574.55
2023-04-27T08:56:44.158Z,99577.86
2023-04-27T08:59:44.221Z,99571.54
2023-04-27T09:02:47.530Z,99567.67
2023-04-27T09:06:00.682Z,99563.77
2023-04-27T09:09:05.158Z,99567.81
2023-04-27T09:12:05.111Z,99568.17
2023-04-27T09:15:15.170Z,99571.70
2023-04-27T09:18:15.331Z,99571.81
2023-04-27T09:21:15.173Z,99573.42
2023-04-27T09:24:25.138Z,99568.90
2023-04-27T09:27:32.310Z,99572.45
2023-04-27T09:30:32.192Z,99569.80
2023-04-27T09:33:35.239Z,99570.94
2023-04-27T09:36:35.242Z,99566.80
2023-04-27T09:39:35.219Z,99563.54
2023-04-27T09:42:35.162Z,99569.60
2023-04-27T09:45:35.254Z,99569.30
2023-04-27T09:48:35.229Z,99570.70
2023-04-27T09:51:35.209Z,99565.46
2023-04-27T09:54:36.192Z,99570.36
2023-04-27T09:57:39.271Z,99571.37
2023-04-27T10:00:48.277Z,99568.80
2023-04-27T10:04:09.358Z,99567.73
2023-04-27T10:07:09.290Z,99570.91
2023-04-27T10:10:13.338Z,99569.58
2023-04-27T10:13:14.303Z,99571.36
2023-04-27T10:16:27.276Z,99574.80
2023-04-27T10:19:27.434Z,99575.96
2023-04-27T10:22:28.256Z,99577.80
2023-04-27T10:25:34.250Z,99579.06
2023-04-27T10:28:35.352Z,99589.17
2023-04-27T10:31:40.310Z,99584.64
2023-04-27T10:34:41.862Z,99591.59
2023-04-27T10:37:51.305Z,99592.45
2023-04-27T10:40:51.300Z,99590.25
2023-04-27T10:43:52.278Z,99592.77
2023-04-27T10:47:02.343Z,99596.05
2023-04-27T10:50:04.321Z,99600.09
2023-04-27T10:53:04.404Z,99600.65
2023-04-27T10:56:10.343Z,99604.26
2023-04-27T10:59:14.592Z,99606.02
2023-04-27T11:02:15.346Z,99606.67
2023-04-27T11:05:15.366Z,99606.55
2023-04-27T11:08:21.425Z,99610.46
2023-04-27T11:11:21.467Z,99609.92
2023-04-27T11:14:21.393Z,99606.34
2023-04-27T11:17:21.763Z,99609.65
2023-04-27T11:20:22.413Z,99611.52
2023-04-27T11:23:24.391Z,99608.95
2023-04-27T11:26:24.375Z,99612.45
2023-04-27T11:29:24.387Z,99615.16
2023-04-27T11:32:33.477Z,99616.55
2023-04-27T11:35:46.428Z,99620.80
2023-04-27T11:38:47.455Z,99624.03
2023-04-27T11:41:52.362Z,99628.89
2023-04-27T11:44:52.387Z,99632.31
2023-04-27T11:47:52.533Z,99630.17
2023-04-27T11:50:57.428Z,99626.94
2023-04-27T11:54:00.394Z,99626.98
2023-04-27T11:57:00.509Z,99626.16
2023-04-27T12:00:00.644Z,99624.34
2023-04-27T12:03:06.677Z,99621.77
2023-04-27T12:06:27.730Z,99621.30
2023-04-27T12:09:28.511Z,99625.86
2023-04-27T12:12:28.447Z,99627.19
2023-04-27T12:15:28.465Z,99627.46
2023-04-27T12:18:28.466Z,99630.16
2023-04-27T12:21:28.452Z,99632.81
2023-04-27T12:24:28.512Z,99633.77
2023-04-27T12:27:29.435Z,99634.25
2023-04-27T12:30:29.467Z,99633.84
2023-04-27T12:33:29.502Z,99634.68
2023-04-27T12:36:29.537Z,99635.56
2023-04-27T12:39:33.552Z,99633.28
2023-04-27T12:42:33.481Z,99632.19
2023-04-27T12:45:33.559Z,99641.95
2023-04-27T12:48:34.528Z,99641.43
2023-04-27T12:51:37.486Z,99646.52
2023-04-27T12:54:37.581Z,99645.49
2023-04-27T12:57:38.547Z,99644.01
2023-04-27T13:00:38.501Z,99641.44
2023-04-27T13:03:38.711Z,99644.56
2023-04-27T13:06:38.551Z,99645.73
2023-04-27T13:09:38.525Z,99648.73
2023-04-27T13:12:38.548Z,99654.34
2023-04-27T13:15:38.801Z,99647.98
2023-04-27T13:18:38.575Z,99651.84
2023-04-27T13:21:39.591Z,99659.13
2023-04-27T13:24:39.547Z,99659.70
2023-04-27T13:27:39.566Z,99664.23
2023-04-27T13:30:39.556Z,99662.80
2023-04-27T13:33:40.598Z,99665.14
2023-04-27T13:36:40.573Z,99665.83
2023-04-27T13:39:40.570Z,99669.81
2023-04-27T13:42:40.656Z,99669.57
2023-04-27T13:45:40.727Z,99668.02
2023-04-27T13:48:41.650Z,99664.95
2023-04-27T13:51:41.658Z,99666.77
2023-04-27T13:54:41.634Z,99668.89
2023-04-27T13:57:41.648Z,99668.31
2023-04-27T14:00:41.651Z,99669.70
2023-04-27T14:03:44.802Z,99680.60
2023-04-27T14:06:44.673Z,99678.97
2023-04-27T14:09:44.677Z,99682.12
2023-04-27T14:12:44.711Z,99686.02
2023-04-27T14:15:44.611Z,99688.95
2023-04-27T14:18:44.637Z,99692.45
2023-04-27T14:21:44.706Z,99691.23
2023-04-27T14:24:44.717Z,99699.73
2023-04-27T14:27:45.667Z,99694.96
2023-04-27T14:30:45.654Z,99694.62
2023-04-27T14:33:45.696Z,99692.61
2023-04-27T14:36:45.823Z,99698.23
2023-04-27T14:39:45.819Z,99703.12
2023-04-27T14:42:45.656Z,99705.80
2023-04-27T14:45:52.600Z,99709.20
2023-04-27T14:48:54.792Z,99708.14
2023-04-27T14:51:54.795Z,99715.24
2023-04-27T14:54:54.710Z,99715.20
2023-04-27T14:57:54.764Z,99711.56
2023-04-27T15:00:55.705Z,99724.10
2023-04-27T15:03:56.895Z,99717.41
2023-04-27T15:06:57.757Z,99720.11
2023-04-27T15:10:00.258Z,99714.21
2023-04-27T15:13:00.757Z,99724.48
2023-04-27T15:16:00.763Z,99719.93
2023-04-27T15:19:00.798Z,99717.52
2023-04-27T15:22:00.788Z,99707.21
2023-04-27T15:25:00.834Z,99705.02
2023-04-27T15:28:03.160Z,99702.70
2023-04-27T15:31:02.824Z,99705.89
2023-04-27T15:34:04.291Z,99697.59
2023-04-27T15:37:04.758Z,99697.86
2023-04-27T15:40:04.947Z,99703.08
2023-04-27T15:43:05.810Z,99703.02
2023-04-27T15:46:05.897Z,99703.63
2023-04-27T15:49:05.740Z,99712.88
2023-04-27T15:52:05.844Z,99716.13
2023-04-27T15:55:08.129Z,99728.36
2023-04-27T15:58:07.813Z,99729.02
2023-04-27T16:01:07.869Z,99735.50
2023-04-27T16:04:08.030Z,99741.34
2023-04-27T16:07:12.064Z,99740.33
2023-04-27T16:10:15.847Z,99749.18
2023-04-27T16:13:17.803Z,99752.14
2023-04-27T16:16:18.079Z,99751.64
2023-04-27T16:19:18.565Z,99744.98
2023-04-27T16:22:18.886Z,99745.30
2023-04-27T16:25:18.915Z,99743.41
2023-04-27T16:28:22.707Z,99749.05
2023-04-27T16:31:22.990Z,99753.68
2023-04-27T16:34:27.076Z,99756.09
2023-04-27T16:37:26.950Z,99749.87
2023-04-27T16:40:26.961Z,99741.71
2023-04-27T16:43:27.030Z,99738.33
2023-04-27T16:46:28.378Z,99736.23
2023-04-27T16:49:30.140Z,99738.96
2023-04-27T16:52:29.972Z,99741.20
2023-04-27T16:55:30.062Z,99747.42
2023-04-27T16:58:29.981Z,99749.52
2023-04-27T17:01:30.302Z,99755.47
2023-04-27T17:04:30.968Z,99756.80
2023-04-27T17:07:30.928Z,99760.40
2023-04-27T17:10:31.030Z,99768.58
2023-04-27T17:13:32.947Z,99776.73
2023-04-27T17:16:35.950Z,99781.86
2023-04-27T17:19:36.042Z,99787.70
2023-04-27T17:22:38.963Z,99787.86
2023-04-27T17:25:48.337Z,99789.42
2023-04-27T17:28:49.019Z,99793.90
2023-04-27T17:31:49.940Z,99793.27
2023-04-27T17:34:50.141Z,99798.47
2023-04-27T17:38:00.415Z,99799.16
2023-04-27T17:41:06.996Z,99799.31
2023-04-27T17:44:07.065Z,99801.42
2023-04-27T17:47:06.976Z,99801.46
2023-04-27T17:50:07.008Z,99804.38
2023-04-27T17:53:06.969Z,99804.38
2023-04-27T17:56:07.011Z,99800.48
2023-04-27T17:59:07.998Z,99799.44
2023-04-27T18:02:08.107Z,99807.81
2023-04-27T18:05:08.106Z,99814.55
2023-04-27T18:08:08.015Z,99824.33
2023-04-27T18:11:08.041Z,99825.88
2023-04-27T18:14:10.076Z,99826.77
2023-04-27T18:17:10.033Z,99830.73
2023-04-27T18:20:15.347Z,99824.82
2023-04-27T18:23:16.082Z,99825.86
2023-04-27T18:26:16.182Z,99826.20
2023-04-27T18:29:16.199Z,99825.90
2023-04-27T18:32:09.194Z,99836.36
2023-04-27T18:35:09.123Z,99837.71
2023-04-27T18:38:09.048Z,99829.67
2023-04-27T18:41:09.117Z,99828.92
2023-04-27T18:44:15.348Z,99829.09
2023-04-27T18:47:16.095Z,99822.41
2023-04-27T18:50:16.083Z,99830.98
2023-04-27T18:53:17.130Z,99833.58
2023-04-27T18:56:17.195Z,99837.88
2023-04-27T18:59:23.185Z,99841.66
2023-04-27T19:02:23.239Z,99837.91
2023-04-27T19:05:25.177Z,99840.48
2023-04-27T19:08:26.374Z,99838.63
2023-04-27T19:11:28.129Z,99837.94
2023-04-27T19:14:30.208Z,99846.70
2023-04-27T19:17:31.273Z,99847.28
2023-04-27T19:20:31.226Z,99854.17
2023-04-27T19:23:35.124Z,99854.07
2023-04-27T19:26:42.221Z,99858.04
2023-04-27T19:30:09.223Z,99857.70
2023-04-27T19:33:09.249Z,99854.96
2023-04-27T19:36:10.180Z,99863.53
2023-04-27T19:39:10.173Z,99863.08
2023-04-27T19:42:10.250Z,99867.93
2023-04-27T19:45:10.237Z,99868.64
2023-04-27T19:48:10.252Z,99872.44
2023-04-27T19:51:10.219Z,99875.55
2023-04-27T19:54:10.189Z,99882.54
2023-04-27T19:57:10.194Z,99884.27
2023-04-27T20:00:11.227Z,99890.77
2023-04-27T20:03:12.397Z,99899.85
2023-04-27T20:06:13.366Z,99901.50
2023-04-27T20:09:13.271Z,99899.34
2023-04-27T20:12:24.025Z,99898.80
2023-04-27T20:15:29.347Z,99897.27
2023-04-27T20:18:31.347Z,99897.45
2023-04-27T20:21:31.249Z,99902.86
2023-04-27T20:24:31.233Z,99904.59
2023-04-27T20:27:31.304Z,99911.04
2023-04-27T20:30:31.287Z,99912.34
2023-04-27T20:33:31.360Z,99912.88
2023-04-27T20:36:31.300Z,99907.55
2023-04-27T20:39:31.273Z,99905.79
2023-04-27T20:42:31.285Z,99909.88
2023-04-27T20:45:32.320Z,99908.94
2023-04-27T20:48:35.349Z,99915.45
2023-04-27T20:51:35.286Z,99913.21
2023-04-27T20:54:39.300Z,99919.43
2023-04-27T20:57:39.301Z,99918.33
2023-04-27T21:00:39.294Z,99916.41
2023-04-27T21:03:40.430Z,99917.92
2023-04-27T21:06:40.345Z,99914.79
2023-04-27T21:09:41.428Z,99916.63
2023-04-27T21:12:41.334Z,99913.69
2023-04-27T21:15:41.402Z,99915.91
2023-04-27T21:18:41.473Z,99913.60
2023-04-27T21:21:41.325Z,99916.60
2023-04-27T21:24:41.382Z,99910.35
2023-04-27T21:27:44.360Z,99912.34
2023-04-27T21:30:44.454Z,99907.98
2023-04-27T21:33:48.354Z,99910.77
2023-04-27T21:36:49.458Z,99915.34
2023-04-27T21:39:49.390Z,99918.43
2023-04-27T21:42:49.425Z,99921.86
2023-04-27T21:45:49.437Z,99926.83
2023-04-27T21:48:51.657Z,99923.02
2023-04-27T21:51:52.465Z,99915.88
2023-04-27T21:54:53.525Z,99917.13
2023-04-27T21:57:53.417Z,99915.07
2023-04-27T22:00:53.716Z,99910.11
2023-04-27T22:03:55.944Z,99903.04
2023-04-27T22:06:57.453Z,99897.98
2023-04-27T22:09:57.459Z,99897.02
2023-04-27T22:13:00.204Z,99898.52
2023-04-27T22:16:02.502Z,99901.21
2023-04-27T22:19:02.408Z,99903.58
2023-04-27T22:22:02.455Z,99903.75
2023-04-27T22:25:02.701Z,99907.48
2023-04-27T22:28:02.467Z,99908.82
2023-04-27T22:31:02.521Z,99906.90
2023-04-27T22:34:02.460Z,99904.84
2023-04-27T22:37:02.474Z,99903.40
2023-04-27T22:40:02.469Z,99904.25
2023-04-27T22:43:02.557Z,99899.27
2023-04-27T22:46:03.570Z,99904.11
2023-04-27T22:49:04.502Z,99905.83
2023-04-27T22:52:04.479Z,99905.11
2023-04-27T22:55:04.549Z,99895.16
2023-04-27T22:58:05.494Z,99898.52
2023-04-27T23:01:06.579Z,99899.38
2023-04-27T23:04:06.618Z,99898.06
2023-04-27T23:07:06.572Z,99896.55
2023-04-27T23:10:09.591Z,99894.66
2023-04-27T23:13:10.575Z,99896.39
2023-04-27T23:16:10.680Z,99894.30
2023-04-27T23:19:12.543Z,99897.09
2023-04-27T23:22:14.584Z,99896.23
2023-04-27T23:25:15.564Z,99897.61
2023-04-27T23:28:15.610Z,99898.29
2023-04-27T23:31:15.536Z,99895.77
2023-04-27T23:34:15.735Z,99896.65
2023-04-27T23:37:17.568Z,99898.70
2023-04-27T23:40:17.562Z,99900.71
2023-04-27T23:43:17.553Z,99902.16
2023-04-27T23:46:17.713Z,99906.67
2023-04-27T23:49:17.595Z,99908.52
2023-04-27T23:52:17.644Z,99907.91
2023-04-27T23:55:17.629Z,99907.46
2023-04-27T23:58:17.575Z,99904.27
